Mc Guffey, Ohio
Current Conditions -  °F | °C
As of 5:53 PM on Friday 28 Nov 2014 (Local Time) from KAOH Reporting Station
Broken Clouds Broken Clouds  
Wind Chill: 21°   Ceiling: 11000
Heat Index: 31°   Visibility: 10mi
Dew Point: 20°   Wind: 14mph
Humidity: 64%   Direction: 160°SSE
Pressure: 30.13"   Gusts: NA
Location:  40.6943°N, 83.7835°W
Report Text: KAOH 282253Z AUTO 16012KT 10SM BKN110 M01/M07 A3013 RMK AO2 SLP214 T10061067
Loading
Personal Weather Stations






























Interactive Weather Map New forecast layout! Learn more

10-Day Weather Forecast

Advertisements
Track Severe Weather on mobile